createdAt,value
2023-02-02T00:01:17.362Z,2.2
2023-02-02T00:06:40.302Z,2.2
2023-02-02T00:12:02.964Z,2.3
2023-02-02T00:17:26.080Z,2.4
2023-02-02T00:22:48.860Z,2.4
2023-02-02T00:28:11.622Z,2.5
2023-02-02T00:33:34.887Z,2.6
2023-02-02T00:38:56.598Z,2.6
2023-02-02T00:44:18.911Z,2.5
2023-02-02T00:49:41.583Z,2.4
2023-02-02T00:55:03.922Z,2.4
2023-02-02T01:00:26.689Z,2.4
2023-02-02T01:05:49.189Z,2.4
2023-02-02T01:11:11.224Z,2.3
2023-02-02T01:16:34.074Z,2.2
2023-02-02T01:21:56.700Z,2
2023-02-02T01:27:19.057Z,1.9
2023-02-02T01:32:26.014Z,1.7
2023-02-02T01:37:32.824Z,1.6
2023-02-02T01:42:54.890Z,1.6
2023-02-02T01:48:02.893Z,1.4
2023-02-02T01:53:24.945Z,1.2
2023-02-02T01:58:46.712Z,1
2023-02-02T02:03:53.931Z,0.8
2023-02-02T02:09:16.011Z,0.8
2023-02-02T02:14:37.720Z,0.6
2023-02-02T02:20:00.144Z,0.5
2023-02-02T02:25:22.496Z,0.4
2023-02-02T02:30:29.012Z,0.3
2023-02-02T02:35:52.282Z,0.2
2023-02-02T02:41:13.724Z,0.1
2023-02-02T02:46:36.827Z,0
2023-02-02T02:51:43.774Z,-0.1
2023-02-02T02:57:06.234Z,-0.2
2023-02-02T03:02:29.066Z,-0.2
2023-02-02T03:07:51.892Z,-0.2
2023-02-02T03:12:59.112Z,-0.2
2023-02-02T03:18:21.555Z,-0.2
2023-02-02T03:23:28.532Z,-0.3
2023-02-02T03:28:36.076Z,-0.4
2023-02-02T03:33:43.314Z,-0.6
2023-02-02T03:39:06.019Z,-0.8
2023-02-02T03:49:20.951Z,-1.1
2023-02-02T03:54:43.652Z,-1.3
2023-02-02T04:00:06.242Z,-1.4
2023-02-02T04:05:12.909Z,-1.5
2023-02-02T04:10:19.912Z,-1.6
2023-02-02T04:15:26.407Z,-1.8
2023-02-02T04:20:49.783Z,-1.9
2023-02-02T04:26:12.820Z,-1.9
2023-02-02T04:31:35.573Z,-2.1
2023-02-02T04:36:42.610Z,-2.2
2023-02-02T04:42:04.735Z,-2.3
2023-02-02T04:47:28.042Z,-2.4
2023-02-02T04:52:50.443Z,-2.6
2023-02-02T04:57:41.804Z,-2.6
2023-02-02T05:02:20.327Z,-2.6
2023-02-02T05:07:44.686Z,-2.6
2023-02-02T05:12:52.303Z,-2.8
2023-02-02T05:18:15.529Z,-2.8
2023-02-02T05:23:22.080Z,-2.8
2023-02-02T05:29:00.868Z,-2.8
2023-02-02T05:34:39.224Z,-2.8
2023-02-02T05:40:01.500Z,-2.8
2023-02-02T05:45:08.614Z,-2.8
2023-02-02T05:50:16.195Z,-2.8
2023-02-02T05:55:54.368Z,-2.8
2023-02-02T06:01:32.951Z,-2.7
2023-02-02T06:07:12.046Z,-2.6
2023-02-02T06:12:48.850Z,-2.4
2023-02-02T06:18:27.536Z,-2.3
2023-02-02T06:24:05.730Z,-2.1
2023-02-02T06:29:28.692Z,-1.8
2023-02-02T06:35:08.326Z,-1.4
2023-02-02T06:40:46.785Z,-1.1
2023-02-02T06:51:59.908Z,-0.7
2023-02-02T06:57:41.653Z,-0.4
2023-02-02T07:03:19.531Z,-0.1
2023-02-02T07:09:02.414Z,0.2
2023-02-02T07:15:50.061Z,0.5
2023-02-02T07:21:12.110Z,0.9
2023-02-02T07:26:35.163Z,1.1
2023-02-02T07:31:27.624Z,1.2
2023-02-02T07:36:35.559Z,1.6
2023-02-02T07:41:58.767Z,4.1
2023-02-02T07:47:47.842Z,9
2023-02-02T07:53:15.104Z,12.3
2023-02-02T07:58:56.949Z,17.7
2023-02-02T08:04:22.856Z,25.3
2023-02-02T08:09:29.200Z,31.9
2023-02-02T08:14:52.516Z,38.9
2023-02-02T08:20:31.678Z,40.9
2023-02-02T08:26:10.032Z,34.1
2023-02-02T08:31:33.255Z,32.6
2023-02-02T08:37:11.990Z,40.5
2023-02-02T08:42:50.089Z,39.3
2023-02-02T08:50:13.701Z,31.1
2023-02-02T08:55:52.204Z,31.2
2023-02-02T09:01:29.814Z,38.8
2023-02-02T09:07:09.418Z,45.4
2023-02-02T09:12:48.006Z,43
2023-02-02T09:18:28.683Z,41.9
2023-02-02T09:24:07.096Z,43.2
2023-02-02T09:29:45.997Z,44.5
2023-02-02T09:35:09.487Z,45.1
2023-02-02T09:40:48.326Z,45.9
2023-02-02T09:46:28.700Z,46.9
2023-02-02T09:52:07.104Z,47.9
2023-02-02T09:57:55.576Z,48.8
2023-02-02T10:03:50.044Z,50.1
2023-02-02T10:09:38.112Z,51.3
2023-02-02T10:15:17.224Z,48.3
2023-02-02T10:20:58.798Z,47.8
2023-02-02T10:26:21.880Z,45.9
2023-02-02T10:32:10.165Z,39.9
2023-02-02T10:38:04.516Z,44.7
2023-02-02T10:43:43.265Z,49.4
2023-02-02T10:49:21.795Z,43.6
2023-02-02T10:55:14.002Z,47.1
2023-02-02T11:00:53.306Z,52.9
2023-02-02T11:06:44.277Z,46.3
2023-02-02T11:12:24.273Z,48.3
2023-02-02T11:18:20.301Z,49.7
2023-02-02T11:23:42.860Z,49.8
2023-02-02T11:29:21.172Z,48.9
2023-02-02T11:36:41.944Z,41.4
2023-02-02T11:42:20.347Z,46.5
2023-02-02T11:47:58.511Z,51.6
2023-02-02T11:53:44.879Z,51.4
2023-02-02T11:59:24.170Z,47.3
2023-02-02T12:05:06.278Z,47.6
2023-02-02T12:10:44.213Z,41.5
2023-02-02T12:16:08.899Z,35.9
2023-02-02T12:21:47.977Z,31.7
2023-02-02T20:30:21.468Z,1.1
